Time;durP1;ratioP1;P1;durP2;ratioP2;P2;SDS_P1;SDS_P2;PMS_P1;PMS_P2;Temp;Humidity;BMP_temperature;BMP_pressure;BME280_temperature;BME280_humidity;BME280_pressure;Samples;Min_cycle;Max_cycle;Signal;HPM_P1;HPM_P2
2022/10/20 00:01:52;;;;;;;11.68;8.05;;;;;;;14.29;58.49;102008.94;4992952;28;20455;-67
2022/10/20 00:04:17;;;;;;;15.40;7.35;;;;;;;14.39;58.24;102004.69;4992335;28;20046;-67
2022/10/20 00:06:43;;;;;;;19.52;7.32;;;;;;;14.24;59.34;101995.22;4992493;28;20034;-65
2022/10/20 00:09:08;;;;;;;12.35;7.50;;;;;;;14.28;58.55;102002.72;4992565;28;20565;-67
2022/10/20 00:11:33;;;;;;;17.42;8.27;;;;;;;14.71;57.19;101991.88;4992387;28;20030;-67
2022/10/20 00:14:00;;;;;;;13.05;8.05;;;;;;;14.29;58.44;102001.66;4992858;28;20026;-66
2022/10/20 00:16:27;;;;;;;20.60;8.60;;;;;;;14.20;58.63;102002.13;4994049;28;20042;-66
2022/10/20 00:18:53;;;;;;;13.50;7.35;;;;;;;14.64;57.11;101997.34;4995480;28;20050;-66
2022/10/20 00:21:22;;;;;;;15.15;7.32;;;;;;;13.81;59.85;101998.69;5010128;28;20034;-66
2022/10/20 00:23:47;;;;;;;14.93;7.55;;;;;;;14.41;58.73;102002.59;4996087;28;20137;-67
2022/10/20 00:26:19;;;;;;;11.75;7.30;;;;;;;14.27;58.16;102001.00;4996563;28;20475;-66
2022/10/20 00:28:45;;;;;;;20.60;8.48;;;;;;;14.33;58.22;101996.66;4996392;28;20566;-67
2022/10/20 00:31:11;;;;;;;13.27;8.07;;;;;;;13.73;59.84;101987.28;4995639;28;20042;-67
2022/10/20 00:33:36;;;;;;;17.70;8.07;;;;;;;13.94;59.87;101974.25;4996105;28;20105;-66
2022/10/20 00:36:04;;;;;;;17.33;7.28;;;;;;;14.23;58.94;101977.34;4995513;28;20030;-65
2022/10/20 00:38:29;;;;;;;14.05;7.85;;;;;;;14.36;58.29;101967.28;4995367;28;20508;-66
2022/10/20 00:40:55;;;;;;;16.48;7.38;;;;;;;13.85;60.08;101966.63;4996013;28;20061;-66
2022/10/20 00:43:21;;;;;;;15.13;7.65;;;;;;;14.11;58.76;101961.84;4995602;28;20502;-66
2022/10/20 00:45:53;;;;;;;21.42;7.55;;;;;;;14.34;58.81;101947.75;4995605;28;20407;-66
2022/10/20 00:48:24;;;;;;;13.90;8.70;;;;;;;14.52;57.49;101949.66;4995059;28;20038;-66
2022/10/20 00:50:52;;;;;;;14.88;8.18;;;;;;;14.49;57.69;101941.97;4995016;28;20038;-66
2022/10/20 00:53:21;;;;;;;13.23;8.13;;;;;;;14.76;56.84;101938.75;4995762;28;20031;-65
2022/10/20 00:55:49;;;;;;;11.10;6.97;;;;;;;14.51;57.35;101935.28;4996054;28;20035;-66
2022/10/20 00:58:15;;;;;;;11.20;7.15;;;;;;;14.67;56.40;101928.44;4995533;28;20479;-66
2022/10/20 01:00:43;;;;;;;20.23;7.47;;;;;;;14.74;56.76;101934.63;4995645;28;20038;-67
2022/10/20 01:03:15;;;;;;;10.82;7.70;;;;;;;14.44;57.37;101931.84;4995270;28;20126;-66
2022/10/20 01:05:41;;;;;;;12.00;7.65;;;;;;;14.72;56.69;101924.00;4995275;28;20072;-67
2022/10/20 01:08:06;;;;;;;14.70;7.28;;;;;;;15.00;55.65;101923.47;4995935;28;20030;-66
2022/10/20 01:10:45;;;;;;;19.98;8.15;;;;;;;14.87;56.15;101921.78;4995156;28;20134;-65
2022/10/20 01:13:39;;;;;;;16.63;7.32;;;;;;;14.35;57.54;101918.84;4995400;28;20555;-66
2022/10/20 01:16:21;;;;;;;12.63;7.25;;;;;;;14.68;56.64;101897.66;4994870;28;20534;-69
2022/10/20 01:19:02;;;;;;;12.10;8.18;;;;;;;14.37;57.65;101909.44;4994797;28;20046;-67
2022/10/20 01:21:30;;;;;;;11.05;6.55;;;;;;;14.51;57.16;101899.28;4994838;28;20042;-66
2022/10/20 01:24:29;;;;;;;12.68;6.97;;;;;;;14.20;57.98;101889.41;4994836;28;20042;-66
2022/10/20 01:27:10;;;;;;;12.30;6.97;;;;;;;13.89;59.53;101889.50;4994190;28;20050;-66
2022/10/20 01:29:44;;;;;;;18.15;7.05;;;;;;;13.36;60.73;101885.53;4983356;28;20050;-67
2022/10/20 01:32:36;;;;;;;17.23;7.10;;;;;;;13.99;59.05;101881.72;4975611;28;20034;-69
2022/10/20 01:35:23;;;;;;;13.02;7.30;;;;;;;14.37;58.48;101884.28;4973924;28;20050;-66
2022/10/20 01:38:01;;;;;;;11.50;6.43;;;;;;;14.49;57.13;101879.75;4974241;28;20097;-67
2022/10/20 01:40:47;;;;;;;13.30;7.00;;;;;;;13.61;59.59;101875.59;4974688;28;20443;-67
2022/10/20 01:43:16;;;;;;;15.70;6.68;;;;;;;14.79;56.61;101870.66;4974236;28;20038;-67
2022/10/20 01:45:45;;;;;;;11.48;7.22;;;;;;;14.29;57.16;101879.97;4974490;28;20035;-67
2022/10/20 01:48:12;;;;;;;11.63;6.65;;;;;;;14.45;56.98;101876.69;4991096;28;20506;-67
2022/10/20 01:50:39;;;;;;;12.85;7.57;;;;;;;14.45;57.06;101870.44;4992935;28;20053;-65
2022/10/20 01:53:05;;;;;;;18.75;9.05;;;;;;;13.99;59.47;101870.91;4993585;28;20405;-66
2022/10/20 01:55:31;;;;;;;12.98;6.53;;;;;;;14.37;57.65;101858.03;4993510;28;20062;-67
2022/10/20 01:58:10;;;;;;;10.93;7.13;;;;;;;14.27;58.02;101854.19;4993260;28;20072;-66
2022/10/20 02:00:38;;;;;;;10.48;6.78;;;;;;;14.25;57.91;101856.31;4993343;28;20047;-66
2022/10/20 02:03:40;;;;;;;10.20;6.60;;;;;;;13.67;59.72;101843.13;4992162;28;20058;-66
2022/10/20 02:06:31;;;;;;;11.00;6.85;;;;;;;14.25;57.54;101848.19;4993172;28;20046;-66
2022/10/20 02:09:00;;;;;;;11.52;6.95;;;;;;;14.20;58.03;101848.84;4993440;28;20117;-67
2022/10/20 02:11:38;;;;;;;13.30;6.40;;;;;;;14.51;57.12;101845.19;4993348;28;20470;-66
2022/10/20 02:14:05;;;;;;;13.50;6.72;;;;;;;14.00;58.50;101832.84;4993494;28;20050;-66
2022/10/20 02:16:39;;;;;;;17.35;6.88;;;;;;;13.80;59.00;101832.19;4980638;28;20041;-66
2022/10/20 02:19:09;;;;;;;12.63;6.25;;;;;;;13.59;59.63;101824.50;4973270;28;20057;-65
2022/10/20 02:21:35;;;;;;;8.98;7.35;;;;;;;13.69;59.27;101816.72;4973879;28;20586;-67
2022/10/20 02:24:05;;;;;;;12.57;7.47;;;;;;;14.18;58.03;101815.81;4973491;28;20523;-66
2022/10/20 02:26:32;;;;;;;12.70;6.80;;;;;;;13.78;59.68;101815.38;4974017;28;20034;-67
2022/10/20 02:29:02;;;;;;;13.35;6.95;;;;;;;14.23;57.71;101815.16;4976995;28;20022;-66
2022/10/20 02:31:27;;;;;;;11.18;6.70;;;;;;;13.90;58.30;101812.78;4973119;28;20046;-66
2022/10/20 02:33:56;;;;;;;19.10;6.93;;;;;;;13.74;58.90;101799.84;4973056;28;20042;-66
2022/10/20 02:36:26;;;;;;;10.45;6.80;;;;;;;13.76;58.73;101795.88;4971510;28;20122;-66
2022/10/20 02:38:52;;;;;;;13.50;6.68;;;;;;;13.84;59.10;101802.84;4972646;28;20043;-66
2022/10/20 02:41:17;;;;;;;13.55;6.38;;;;;;;13.81;59.03;101804.16;4973346;28;20510;-66
2022/10/20 02:43:42;;;;;;;13.85;6.97;;;;;;;13.66;59.55;101789.34;4986965;28;20312;-66
2022/10/20 02:46:08;;;;;;;11.40;6.90;;;;;;;14.15;58.20;101786.53;4992370;28;20177;-67
2022/10/20 02:48:33;;;;;;;8.13;7.05;;;;;;;13.94;58.91;101778.84;4992522;28;20045;-66
2022/10/20 02:50:59;;;;;;;10.57;6.85;;;;;;;13.54;59.58;101783.81;4992094;28;20491;-66
2022/10/20 02:53:24;;;;;;;9.80;6.55;;;;;;;13.74;58.98;101781.75;4992399;28;20376;-66
2022/10/20 02:55:50;;;;;;;11.73;6.32;;;;;;;13.99;58.90;101763.59;4992740;28;20034;-67
2022/10/20 02:58:15;;;;;;;11.85;6.78;;;;;;;14.00;58.02;101765.28;4992116;28;20128;-67
2022/10/20 03:00:40;;;;;;;15.25;6.18;;;;;;;13.72;59.07;101764.94;4992370;28;20073;-66
2022/10/20 03:03:06;;;;;;;13.60;6.82;;;;;;;13.70;59.65;101780.56;4992165;28;20411;-66
2022/10/20 03:05:31;;;;;;;14.43;8.15;;;;;;;13.43;60.12;101781.00;4991725;28;20038;-66
2022/10/20 03:07:56;;;;;;;12.85;6.30;;;;;;;13.56;59.78;101770.13;4993306;28;20479;-65
2022/10/20 03:10:22;;;;;;;9.80;6.13;;;;;;;13.56;59.75;101765.50;4992510;28;20042;-66
2022/10/20 03:12:47;;;;;;;11.25;7.03;;;;;;;13.49;60.08;101756.66;4992363;28;20116;-68
2022/10/20 03:15:12;;;;;;;12.82;6.32;;;;;;;13.48;59.91;101749.63;4990050;28;20039;-67
2022/10/20 03:17:38;;;;;;;10.05;6.80;;;;;;;13.73;59.25;101747.72;4972511;28;20344;-66
2022/10/20 03:20:05;;;;;;;11.95;6.28;;;;;;;13.77;58.79;101739.97;4973520;28;20041;-66
2022/10/20 03:22:30;;;;;;;11.38;6.72;;;;;;;13.37;60.16;101731.44;4987824;28;20055;-68
2022/10/20 03:24:55;;;;;;;9.82;6.53;;;;;;;13.81;58.88;101723.09;4972710;28;20035;-66
2022/10/20 03:27:21;;;;;;;8.88;6.38;;;;;;;13.56;59.35;101718.81;4972762;28;20031;-67
2022/10/20 03:29:46;;;;;;;10.52;6.72;;;;;;;13.72;59.05;101712.81;4985637;28;20037;-67
2022/10/20 03:32:12;;;;;;;16.42;6.30;;;;;;;13.45;59.48;101711.41;4992604;28;20113;-69
2022/10/20 03:34:37;;;;;;;9.48;7.13;;;;;;;13.65;60.03;101710.19;4991578;28;20497;-69
2022/10/20 03:37:02;;;;;;;13.07;6.35;;;;;;;13.81;59.58;101712.28;4991193;28;20038;-67
2022/10/20 03:39:28;;;;;;;10.20;7.28;;;;;;;13.58;60.01;101708.59;4991271;28;20518;-68
2022/10/20 03:41:53;;;;;;;16.83;6.65;;;;;;;13.42;60.86;101704.59;4991473;28;20038;-67
2022/10/20 03:44:19;;;;;;;10.50;6.63;;;;;;;13.66;59.65;101705.63;4991479;28;20034;-67
2022/10/20 03:46:44;;;;;;;10.50;6.65;;;;;;;13.71;60.17;101703.88;4992382;28;20565;-67
2022/10/20 03:49:10;;;;;;;15.55;6.25;;;;;;;13.86;59.16;101712.44;4991602;28;20046;-70
2022/10/20 03:51:35;;;;;;;10.90;6.70;;;;;;;13.84;59.37;101714.53;4995302;28;20070;-67
2022/10/20 03:54:00;;;;;;;8.70;6.10;;;;;;;14.32;57.51;101708.38;4995730;28;20391;-66
2022/10/20 03:56:26;;;;;;;10.13;6.25;;;;;;;14.21;57.53;101709.13;4995384;28;20494;-67
2022/10/20 03:58:51;;;;;;;12.85;6.53;;;;;;;14.50;56.78;101701.03;4996042;28;20062;-67
2022/10/20 04:01:20;;;;;;;11.07;6.53;;;;;;;14.03;58.25;101707.25;4993117;28;20129;-68
2022/10/20 04:03:45;;;;;;;9.48;6.72;;;;;;;14.04;58.13;101692.69;4994837;28;20093;-67
2022/10/20 04:06:12;;;;;;;10.40;5.93;;;;;;;13.63;59.86;101692.53;4985339;28;20030;-68
2022/10/20 04:08:37;;;;;;;9.75;6.65;;;;;;;13.88;58.67;101686.00;4990792;28;20026;-67
2022/10/20 04:11:03;;;;;;;10.18;6.38;;;;;;;14.06;58.17;101683.28;4995366;28;20089;-68
2022/10/20 04:13:28;;;;;;;11.07;6.15;;;;;;;13.32;60.62;101676.47;4994955;28;20045;-67
2022/10/20 04:15:54;;;;;;;13.27;7.15;;;;;;;13.69;59.44;101670.88;4994993;28;20038;-68
2022/10/20 04:18:19;;;;;;;10.32;6.38;;;;;;;13.87;59.00;101668.16;4977186;28;20466;-66
2022/10/20 04:20:47;;;;;;;10.65;6.32;;;;;;;14.34;57.31;101665.69;4994661;28;20037;-68
2022/10/20 04:23:12;;;;;;;10.60;7.13;;;;;;;14.19;57.65;101660.66;4977940;28;20073;-67
2022/10/20 04:25:44;;;;;;;13.13;7.30;;;;;;;13.35;59.77;101647.13;4995000;28;20042;-68
2022/10/20 04:28:11;;;;;;;16.10;8.50;;;;;;;13.99;58.23;101636.59;4995404;28;20374;-68
2022/10/20 04:30:38;;;;;;;9.45;8.05;;;;;;;13.67;59.29;101629.75;4975506;28;20062;-68
2022/10/20 04:33:03;;;;;;;11.20;6.45;;;;;;;13.88;58.88;101629.28;4992636;28;20035;-67
2022/10/20 04:35:28;;;;;;;9.32;7.53;;;;;;;13.71;59.31;101619.31;4993462;28;20034;-69
2022/10/20 04:37:54;;;;;;;13.93;7.82;;;;;;;13.79;59.42;101609.03;4994015;28;20044;-69
2022/10/20 04:40:19;;;;;;;10.77;7.85;;;;;;;13.79;58.98;101611.75;4993622;28;20542;-66
2022/10/20 04:42:44;;;;;;;13.55;7.53;;;;;;;13.75;58.89;101615.94;4992289;28;20034;-67
2022/10/20 04:45:10;;;;;;;12.40;7.03;;;;;;;13.95;58.33;101612.97;4993610;28;20088;-67
2022/10/20 04:47:36;;;;;;;14.77;8.07;;;;;;;13.70;59.10;101610.38;4994606;28;20042;-68
2022/10/20 04:50:02;;;;;;;15.98;7.68;;;;;;;13.35;60.49;101597.72;4993945;28;20088;-67
2022/10/20 04:52:28;;;;;;;27.77;8.27;;;;;;;13.79;59.59;101602.81;4975220;28;20070;-67
2022/10/20 04:54:53;;;;;;;15.50;8.65;;;;;;;13.67;59.91;101597.34;4974875;28;20066;-67
2022/10/20 04:57:19;;;;;;;10.98;7.70;;;;;;;13.22;61.11;101587.91;4975157;28;20173;-67
2022/10/20 04:59:44;;;;;;;12.57;7.43;;;;;;;13.42;59.90;101579.59;4993594;28;20519;-67
2022/10/20 05:02:10;;;;;;;16.88;8.35;;;;;;;13.06;61.34;101591.19;4993946;28;20037;-67
2022/10/20 05:04:35;;;;;;;22.35;8.80;;;;;;;13.11;61.75;101575.13;4994390;28;20433;-67
2022/10/20 05:07:02;;;;;;;13.68;9.18;;;;;;;13.12;61.64;101564.13;4994239;28;20050;-67
2022/10/20 05:09:27;;;;;;;11.73;8.88;;;;;;;13.70;59.83;101567.16;4991903;28;20498;-67
2022/10/20 05:11:52;;;;;;;13.90;8.55;;;;;;;13.24;60.73;101564.22;4993214;28;20122;-67
2022/10/20 05:14:18;;;;;;;18.95;10.30;;;;;;;13.02;61.55;101568.34;4986200;28;20045;-68
2022/10/20 05:16:44;;;;;;;15.45;8.88;;;;;;;12.98;61.94;101565.28;4983038;28;20463;-67
2022/10/20 05:19:10;;;;;;;12.77;9.45;;;;;;;12.90;62.83;101560.19;4974411;28;20072;-68
2022/10/20 05:21:35;;;;;;;13.02;9.70;;;;;;;12.87;62.03;101554.41;4974330;28;20122;-68
2022/10/20 05:24:03;;;;;;;16.02;10.32;;;;;;;13.57;59.78;101551.13;4974697;28;20181;-67
2022/10/20 05:26:35;;;;;;;13.50;9.98;;;;;;;13.83;59.32;101545.41;4974550;28;20022;-68
2022/10/20 05:29:03;;;;;;;17.67;10.13;;;;;;;13.23;60.74;101544.50;4981721;28;20022;-68
2022/10/20 05:31:28;;;;;;;17.60;10.90;;;;;;;13.10;61.84;101538.41;4993735;28;20034;-67
2022/10/20 05:33:55;;;;;;;11.90;9.70;;;;;;;13.37;61.12;101525.44;4993867;28;20049;-67
2022/10/20 05:36:23;;;;;;;17.65;10.10;;;;;;;13.03;61.98;101522.28;4992316;28;20026;-67
2022/10/20 05:38:50;;;;;;;15.63;11.90;;;;;;;13.75;60.09;101513.28;4993507;28;20070;-68
2022/10/20 05:41:18;;;;;;;16.17;10.93;;;;;;;13.04;61.68;101506.94;4994406;28;20046;-68
2022/10/20 05:43:53;;;;;;;17.77;10.68;;;;;;;13.56;60.03;101503.56;4994088;28;20046;-67
2022/10/20 05:46:19;;;;;;;13.60;10.52;;;;;;;13.39;60.45;101505.25;4993909;28;20034;-66
2022/10/20 05:48:45;;;;;;;25.08;13.45;;;;;;;13.07;61.93;101510.00;4994158;28;20043;-67
2022/10/20 05:51:14;;;;;;;15.85;10.73;;;;;;;13.30;61.07;101512.03;4993363;28;20513;-68
2022/10/20 05:53:39;;;;;;;19.35;12.10;;;;;;;13.17;60.92;101498.69;4993310;28;20034;-68
2022/10/20 05:56:07;;;;;;;17.92;12.07;;;;;;;13.14;62.16;101488.34;4994024;28;20048;-66
2022/10/20 05:58:33;;;;;;;17.70;11.63;;;;;;;13.23;60.97;101486.97;4993407;28;20274;-67
2022/10/20 06:01:16;;;;;;;18.90;11.80;;;;;;;13.59;59.82;101478.81;4993717;28;20061;-66
2022/10/20 06:03:49;;;;;;;18.48;12.48;;;;;;;13.34;61.14;101480.84;4994384;28;20038;-67
2022/10/20 06:06:15;;;;;;;21.10;13.73;;;;;;;14.07;57.77;101484.13;4994502;28;20396;-67
2022/10/20 06:08:40;;;;;;;14.30;11.90;;;;;;;13.30;60.89;101489.59;4994185;28;20113;-66
2022/10/20 06:11:08;;;;;;;17.65;12.27;;;;;;;13.50;60.71;101491.00;4994702;28;20585;-68
2022/10/20 06:13:34;;;;;;;14.95;12.23;;;;;;;13.77;59.08;101497.69;4994115;28;20092;-68
2022/10/20 06:16:21;;;;;;;25.05;11.65;;;;;;;14.15;58.61;101497.31;4993720;28;20545;-67
2022/10/20 06:18:47;;;;;;;16.35;12.98;;;;;;;13.97;58.00;101502.78;4993629;28;20046;-67
2022/10/20 06:21:33;;;;;;;18.73;11.60;;;;;;;13.73;59.08;101509.16;4993488;28;20050;-67
2022/10/20 06:24:00;;;;;;;19.85;12.20;;;;;;;13.67;60.33;101516.31;4993735;28;20042;-68
2022/10/20 06:26:35;;;;;;;19.98;12.95;;;;;;;13.86;59.40;101514.38;4993800;28;20113;-68
2022/10/20 06:29:02;;;;;;;18.77;10.98;;;;;;;14.42;57.93;101506.66;4993684;28;20038;-68
2022/10/20 06:31:34;;;;;;;17.73;12.70;;;;;;;14.69;56.90;101497.00;4993884;28;20034;-67
2022/10/20 06:34:00;;;;;;;18.70;13.32;;;;;;;14.68;56.48;101484.53;4993593;28;20111;-69
2022/10/20 06:36:26;;;;;;;14.40;11.43;;;;;;;14.35;57.73;101481.59;4993540;28;20121;-68
2022/10/20 06:38:57;;;;;;;16.70;12.93;;;;;;;13.71;59.19;101501.31;4993540;28;20038;-70
2022/10/20 06:41:23;;;;;;;17.88;12.63;;;;;;;14.49;57.62;101501.13;4993589;28;20040;-69
2022/10/20 06:43:49;;;;;;;19.80;12.38;;;;;;;14.54;56.42;101507.50;4993767;28;20069;-67
2022/10/20 06:46:16;;;;;;;14.80;13.05;;;;;;;14.76;56.66;101511.22;4992957;28;20039;-69
2022/10/20 06:48:43;;;;;;;16.42;12.05;;;;;;;15.22;55.02;101515.75;4993229;28;20130;-69
2022/10/20 06:51:14;;;;;;;17.75;12.85;;;;;;;14.85;55.83;101522.53;4992736;28;21031;-69
2022/10/20 06:53:41;;;;;;;18.27;12.35;;;;;;;14.70;56.30;101504.06;4993043;28;20629;-68
2022/10/20 06:56:09;;;;;;;16.02;12.38;;;;;;;14.79;56.02;101499.94;4993286;28;20490;-69
2022/10/20 06:58:36;;;;;;;21.15;13.88;;;;;;;15.04;55.73;101486.13;4992916;28;20034;-69
2022/10/20 07:01:07;;;;;;;19.38;12.63;;;;;;;14.85;56.07;101490.06;4991999;28;20520;-70
2022/10/20 07:03:33;;;;;;;;;;;;;;;14.40;57.51;101484.44;4993872;28;20429;-68
2022/10/20 07:05:59;;;;;;;18.30;12.75;;;;;;;14.61;56.96;101502.78;4992989;28;19964;-68
2022/10/20 07:08:29;;;;;;;20.52;13.52;;;;;;;15.12;55.28;101501.19;4992938;28;20038;-68
2022/10/20 07:11:07;;;;;;;20.15;13.23;;;;;;;15.16;55.18;101519.41;4993702;28;20629;-67
2022/10/20 07:13:35;;;;;;;20.05;12.25;;;;;;;15.50;54.06;101523.97;4993004;28;20494;-70
2022/10/20 07:16:02;;;;;;;23.42;13.13;;;;;;;15.29;54.83;101524.56;4983852;28;20053;-65
2022/10/20 07:18:28;;;;;;;18.27;11.32;;;;;;;15.01;55.76;101504.75;4972394;28;20041;-68
2022/10/20 07:20:59;;;;;;;20.00;12.90;;;;;;;15.08;55.60;101519.78;4985534;28;20521;-67
2022/10/20 07:23:25;;;;;;;14.60;11.98;;;;;;;15.29;55.15;101502.09;4991856;28;20077;-65
2022/10/20 07:25:51;;;;;;;22.60;12.48;;;;;;;14.86;56.17;101489.81;4991891;28;20512;-66
2022/10/20 07:28:17;;;;;;;18.13;11.65;;;;;;;14.36;57.91;101498.66;4991977;28;20027;-65
2022/10/20 07:30:42;;;;;;;15.00;11.50;;;;;;;15.42;54.91;101496.44;4992005;28;20046;-66
2022/10/20 07:33:08;;;;;;;20.20;12.85;;;;;;;15.01;55.91;101502.03;4991952;28;20113;-65
2022/10/20 07:35:34;;;;;;;16.55;12.32;;;;;;;15.62;54.41;101505.78;4992126;28;20041;-64
2022/10/20 07:38:00;;;;;;;15.57;11.10;;;;;;;15.24;55.40;101494.69;4992168;28;20367;-65
2022/10/20 07:40:26;;;;;;;18.40;11.77;;;;;;;15.15;55.51;101495.31;4991821;28;20030;-65
2022/10/20 07:42:52;;;;;;;17.02;13.68;;;;;;;15.70;54.36;101496.44;4992047;28;20031;-66
2022/10/20 07:45:17;;;;;;;19.88;12.07;;;;;;;15.31;55.26;101491.84;4992133;28;20034;-65
2022/10/20 07:47:43;;;;;;;15.40;11.07;;;;;;;15.34;55.26;101492.19;5008520;28;20057;-66
2022/10/20 07:50:09;;;;;;;15.57;11.95;;;;;;;14.46;57.34;101477.25;4994179;28;20398;-65
2022/10/20 07:52:34;;;;;;;18.17;12.73;;;;;;;14.45;57.75;101472.91;4992683;28;20038;-67
2022/10/20 07:55:00;;;;;;;16.80;12.50;;;;;;;15.08;56.58;101459.41;4993493;28;20121;-66
2022/10/20 07:57:25;;;;;;;20.95;12.60;;;;;;;15.32;56.06;101463.69;4993959;28;20041;-65
2022/10/20 07:59:50;;;;;;;18.02;11.70;;;;;;;15.04;56.45;101480.72;4993473;28;20046;-64
2022/10/20 08:02:16;;;;;;;13.15;11.75;;;;;;;15.09;56.02;101467.31;4994075;28;20566;-67
2022/10/20 08:04:43;;;;;;;13.90;11.38;;;;;;;14.98;56.51;101460.03;4994675;28;20517;-67
2022/10/20 08:07:09;;;;;;;16.77;10.70;;;;;;;15.13;56.81;101441.41;4992810;28;20122;-65
2022/10/20 08:09:35;;;;;;;23.30;11.95;;;;;;;14.66;58.09;101450.69;4992474;28;20046;-66
2022/10/20 08:12:01;;;;;;;22.65;12.68;;;;;;;14.99;56.98;101431.91;4993060;28;20100;-66
2022/10/20 08:14:29;;;;;;;19.25;12.13;;;;;;;15.71;55.50;101425.72;4992055;28;20042;-64
2022/10/20 08:16:54;;;;;;;16.35;11.95;;;;;;;15.97;54.37;101437.81;4991142;28;20045;-66
2022/10/20 08:19:20;;;;;;;14.40;11.98;;;;;;;15.83;54.72;101439.22;4990680;28;20043;-66
2022/10/20 08:21:45;;;;;;;18.55;11.15;;;;;;;16.26;53.41;101435.84;4990788;28;20402;-67
2022/10/20 08:24:10;;;;;;;14.05;12.10;;;;;;;16.16;53.70;101444.63;4990988;28;20121;-65
2022/10/20 08:26:36;;;;;;;14.93;10.77;;;;;;;16.62;52.70;101438.88;4991335;28;20113;-67
2022/10/20 08:29:01;;;;;;;24.00;12.45;;;;;;;16.29;53.31;101452.47;4990463;28;20058;-66
2022/10/20 08:31:27;;;;;;;17.30;10.93;;;;;;;16.63;52.63;101458.66;4990863;28;20495;-66
2022/10/20 08:33:52;;;;;;;14.52;10.70;;;;;;;15.91;54.35;101444.22;4990833;28;20035;-66
2022/10/20 08:36:17;;;;;;;13.30;10.70;;;;;;;16.26;54.15;101438.56;4991261;28;20495;-65
2022/10/20 08:38:43;;;;;;;18.38;11.63;;;;;;;16.39;53.55;101438.22;4994777;28;20109;-65
2022/10/20 08:41:25;;;;;;;16.77;10.40;;;;;;;16.38;53.80;101417.56;4994695;28;20137;-66
2022/10/20 08:43:52;;;;;;;15.77;10.35;;;;;;;16.60;53.42;101410.34;4994623;28;20105;-65
2022/10/20 08:46:21;;;;;;;15.43;10.77;;;;;;;15.94;54.53;101413.09;4994282;28;20034;-66
2022/10/20 08:48:47;;;;;;;20.45;10.38;;;;;;;16.31;54.25;101417.75;4994591;28;20249;-68
2022/10/20 08:51:22;;;;;;;11.95;10.38;;;;;;;16.73;53.21;101411.88;4994053;28;20041;-66
2022/10/20 08:53:51;;;;;;;14.77;11.13;;;;;;;16.63;53.38;101401.69;4994066;28;20100;-67
2022/10/20 08:56:19;;;;;;;18.45;10.43;;;;;;;16.62;53.19;101413.63;4995180;28;20045;-67
2022/10/20 08:58:45;;;;;;;23.17;10.25;;;;;;;17.25;52.11;101399.47;4994418;28;20038;-67
2022/10/20 09:01:19;;;;;;;19.63;10.57;;;;;;;16.83;52.55;101398.41;4994301;28;20038;-66
2022/10/20 09:03:48;;;;;;;13.32;10.00;;;;;;;17.19;51.50;101392.31;4994338;28;20084;-66
2022/10/20 09:06:15;;;;;;;11.73;10.02;;;;;;;17.40;51.38;101375.16;4994400;28;20105;-66
2022/10/20 09:08:42;;;;;;;14.65;9.13;;;;;;;17.21;52.12;101380.13;5009226;28;20550;-66
2022/10/20 09:11:14;;;;;;;13.02;10.45;;;;;;;17.58;51.58;101385.69;4994492;28;20046;-68
2022/10/20 09:13:39;;;;;;;18.10;9.90;;;;;;;17.58;51.82;101384.84;4994287;28;20426;-66
2022/10/20 09:16:11;;;;;;;11.60;9.57;;;;;;;17.75;51.10;101380.94;4993731;28;20042;-65
2022/10/20 09:18:37;;;;;;;13.57;9.98;;;;;;;18.09;50.26;101370.59;4974245;28;20035;-64
2022/10/20 09:21:13;;;;;;;11.60;8.90;;;;;;;18.24;50.51;101376.13;4974172;28;20041;-66
2022/10/20 09:23:42;;;;;;;12.45;10.20;;;;;;;18.61;49.71;101381.56;4974391;28;20039;-65
2022/10/20 09:26:14;;;;;;;13.25;9.45;;;;;;;18.62;49.93;101372.28;4988214;28;20426;-65
2022/10/20 09:28:40;;;;;;;12.43;9.48;;;;;;;18.33;49.95;101360.97;4993949;28;20030;-64
2022/10/20 09:31:30;;;;;;;9.77;8.13;;;;;;;18.88;49.04;101357.69;4993721;28;20513;-65
2022/10/20 09:33:55;;;;;;;13.07;9.23;;;;;;;18.89;48.55;101365.59;4993483;28;20068;-65
2022/10/20 09:36:25;;;;;;;14.40;8.48;;;;;;;19.16;48.73;101355.31;4993648;28;20077;-69
2022/10/20 09:38:50;;;;;;;12.02;9.45;;;;;;;19.26;48.26;101346.38;4993378;28;20536;-68
2022/10/20 09:41:22;;;;;;;9.63;8.52;;;;;;;19.19;48.54;101346.63;4994147;28;20034;-66
2022/10/20 09:44:01;;;;;;;12.05;8.90;;;;;;;18.57;50.42;101351.31;4993485;28;20057;-70
2022/10/20 09:46:33;;;;;;;13.10;9.80;;;;;;;19.04;48.91;101353.94;4992133;28;20066;-65
2022/10/20 09:48:58;;;;;;;12.27;9.18;;;;;;;18.86;49.90;101354.41;4993185;28;20041;-67
2022/10/20 09:51:26;;;;;;;15.70;9.82;;;;;;;19.04;49.59;101343.88;4993426;28;20506;-68
2022/10/20 09:54:05;;;;;;;13.07;8.80;;;;;;;19.07;49.01;101346.03;4993466;28;20034;-69
2022/10/20 09:56:39;;;;;;;11.75;9.45;;;;;;;19.32;49.19;101353.44;4993316;28;20061;-66
2022/10/20 09:59:25;;;;;;;15.80;9.00;;;;;;;19.48;48.92;101348.88;4993103;28;20038;-68
2022/10/20 10:01:56;;;;;;;12.45;9.18;;;;;;;19.70;48.74;101330.31;4993388;28;20039;-67
2022/10/20 10:04:36;;;;;;;11.73;9.30;;;;;;;19.62;49.00;101333.59;4993642;28;20038;-67
2022/10/20 10:07:04;;;;;;;12.27;9.52;;;;;;;19.26;50.00;101343.63;4993080;28;20038;-67
2022/10/20 10:09:36;;;;;;;10.85;9.02;;;;;;;19.92;48.66;101342.59;4992961;28;20042;-68
2022/10/20 10:12:02;;;;;;;12.98;9.40;;;;;;;20.14;48.07;101337.66;4992869;28;20031;-67
2022/10/20 10:14:28;;;;;;;11.20;8.60;;;;;;;20.35;47.65;101329.41;4993122;28;20542;-69
2022/10/20 10:16:53;;;;;;;12.32;8.65;;;;;;;20.23;48.33;101328.91;4993461;28;20031;-68
2022/10/20 10:19:24;;;;;;;11.13;8.82;;;;;;;19.56;49.91;101327.31;4992569;28;20420;-67
2022/10/20 10:21:57;;;;;;;;;;;;;;;19.77;49.47;101331.66;4993230;28;20042;-67
2022/10/20 10:24:41;;;;;;;15.55;9.68;;;;;;;19.62;50.27;101331.69;4993185;28;19925;-67
2022/10/20 10:27:25;;;;;;;28.42;11.15;;;;;;;19.74;49.05;101332.22;4973431;28;20031;-67
2022/10/20 10:29:52;;;;;;;13.57;9.75;;;;;;;19.83;49.86;101330.56;4973403;28;20403;-69
2022/10/20 10:32:29;;;;;;;13.40;9.50;;;;;;;19.43;50.28;101327.88;4974280;28;20070;-67
2022/10/20 10:35:03;;;;;;;11.70;9.07;;;;;;;19.95;49.38;101322.13;4973579;28;20046;-68
2022/10/20 10:37:30;;;;;;;14.65;10.05;;;;;;;20.09;49.20;101334.91;4972892;28;20040;-66
2022/10/20 10:39:56;;;;;;;26.77;10.43;;;;;;;19.98;49.55;101324.28;4970583;28;20038;-69
2022/10/20 10:42:33;;;;;;;17.90;10.10;;;;;;;20.24;48.42;101325.09;4972783;28;20046;-68
2022/10/20 10:45:14;;;;;;;15.63;9.35;;;;;;;20.29;48.68;101325.88;4972691;28;20380;-69
2022/10/20 10:47:51;;;;;;;17.58;11.07;;;;;;;19.80;50.04;101320.22;4974499;28;20043;-67
2022/10/20 10:50:16;;;;;;;16.40;9.52;;;;;;;20.03;49.73;101324.28;4978763;28;20042;-65
2022/10/20 10:53:23;;;;;;;12.57;10.00;;;;;;;20.10;49.53;101320.19;4988145;28;20129;-67
2022/10/20 10:56:09;;;;;;;15.13;9.73;;;;;;;20.31;48.98;101312.78;4947018;29;20054;-67
2022/10/20 10:58:44;;;;;;;14.70;11.15;;;;;;;20.32;49.16;101313.59;4947103;28;20043;-66
2022/10/20 11:01:34;;;;;;;13.93;8.82;;;;;;;20.56;48.79;101301.75;4946661;28;20035;-67
2022/10/20 11:04:40;;;;;;;14.55;11.07;;;;;;;20.11;49.67;101310.88;4946538;28;20168;-66
2022/10/20 11:07:30;;;;;;;19.35;10.45;;;;;;;19.87;50.41;101303.59;4960300;28;20258;-67
2022/10/20 11:10:12;;;;;;;18.80;10.13;;;;;;;20.50;49.13;101291.94;4951728;28;20101;-66
2022/10/20 11:13:02;;;;;;;19.30;10.10;;;;;;;20.41;49.23;101293.63;4946279;28;20043;-67
2022/10/20 11:15:30;;;;;;;15.25;10.27;;;;;;;20.47;49.24;101305.34;4947313;29;20043;-65
2022/10/20 11:18:24;;;;;;;17.85;11.10;;;;;;;20.20;50.36;101296.72;4945956;28;20102;-67
2022/10/20 11:21:22;;;;;;;17.60;10.98;;;;;;;19.93;51.54;101295.09;4930392;29;20053;-66
2022/10/20 11:24:13;;;;;;;18.95;10.95;;;;;;;20.28;51.51;101290.69;4946960;29;20058;-65
2022/10/20 11:27:09;;;;;;;16.45;11.35;;;;;;;20.22;52.17;101294.53;4946942;29;20047;-66